Time;durP1;ratioP1;P1;durP2;ratioP2;P2;SDS_P1;SDS_P2;PMS_P1;PMS_P2;Temp;Humidity;BMP_temperature;BMP_pressure;BME280_temperature;BME280_humidity;BME280_pressure;Samples;Min_cycle;Max_cycle;Signal;HPM_P1;HPM_P2
2024/01/09 00:00:24;;;;;;;15.23;9.38;;;;;;;;;;4936255;29;20388;-75
2024/01/09 00:02:50;;;;;;;19.05;9.27;;;;;;;;;;4933564;29;20115;-75
2024/01/09 00:05:18;;;;;;;15.10;8.27;;;;;;;;;;4948692;29;20057;-75
2024/01/09 00:07:44;;;;;;;18.00;9.55;;;;;;;;;;4920087;29;20052;-76
2024/01/09 00:10:11;;;;;;;15.65;8.68;;;;;;;;;;4919161;29;20056;-76
2024/01/09 00:12:38;;;;;;;19.58;8.45;;;;;;;;;;4911226;29;20412;-76
2024/01/09 00:15:07;;;;;;;14.82;9.10;;;;;;;;;;4921429;29;20051;-76
2024/01/09 00:17:34;;;;;;;20.20;10.07;;;;;;;;;;4920818;29;20051;-76
2024/01/09 00:20:01;;;;;;;15.32;8.98;;;;;;;;;;4934827;29;20098;-76
2024/01/09 00:22:28;;;;;;;19.17;9.82;;;;;;;;;;4917733;29;20075;-75
2024/01/09 00:24:54;;;;;;;18.30;9.25;;;;;;;;;;4939955;29;20043;-76
2024/01/09 00:27:21;;;;;;;15.18;8.68;;;;;;;;;;4949473;29;20047;-76
2024/01/09 00:29:48;;;;;;;15.90;8.10;;;;;;;;;;4943214;29;20059;-76
2024/01/09 00:32:15;;;;;;;16.65;8.57;;;;;;;;;;4942017;29;20110;-76
2024/01/09 00:34:42;;;;;;;18.25;8.82;;;;;;;;;;4957156;29;20055;-75
2024/01/09 00:37:09;;;;;;;14.38;8.68;;;;;;;;;;4940356;29;20051;-76
2024/01/09 00:39:36;;;;;;;14.93;8.20;;;;;;;;;;4952899;29;20051;-76
2024/01/09 00:42:03;;;;;;;16.50;8.77;;;;;;;;;;4936840;29;20507;-76
2024/01/09 00:44:29;;;;;;;15.98;8.23;;;;;;;;;;4940360;29;20066;-76
2024/01/09 00:46:56;;;;;;;20.63;8.77;;;;;;;;;;4923984;29;20051;-76
2024/01/09 00:49:23;;;;;;;15.05;8.18;;;;;;;;;;4915930;29;20578;-76
2024/01/09 00:51:50;;;;;;;15.63;8.50;;;;;;;;;;4923237;29;20423;-76
2024/01/09 00:54:17;;;;;;;15.90;9.05;;;;;;;;;;4939000;29;20059;-75
2024/01/09 00:56:43;;;;;;;17.33;8.50;;;;;;;;;;4926775;29;20047;-74
2024/01/09 00:59:10;;;;;;;15.60;8.50;;;;;;;;;;4936522;29;20060;-75
2024/01/09 01:01:37;;;;;;;17.02;9.63;;;;;;;;;;4939623;29;20126;-76
2024/01/09 01:04:04;;;;;;;17.75;8.75;;;;;;;;;;4923209;29;20114;-75
2024/01/09 01:06:41;;;;;;;17.90;8.13;;;;;;;;;;4939840;29;20052;-75
2024/01/09 01:09:08;;;;;;;16.10;8.57;;;;;;;;;;4923294;29;20051;-75
2024/01/09 01:11:36;;;;;;;19.83;9.07;;;;;;;;;;4910337;29;20051;-75
2024/01/09 01:14:03;;;;;;;16.60;8.65;;;;;;;;;;4922758;29;20058;-75
2024/01/09 01:16:30;;;;;;;17.52;8.75;;;;;;;;;;4910769;29;20102;-75
2024/01/09 01:18:57;;;;;;;19.30;9.75;;;;;;;;;;4923069;29;20110;-76
2024/01/09 01:21:23;;;;;;;12.68;7.70;;;;;;;;;;4910259;29;20052;-75
2024/01/09 01:23:50;;;;;;;16.83;8.55;;;;;;;;;;4922671;29;20079;-75
2024/01/09 01:26:17;;;;;;;16.05;8.32;;;;;;;;;;4941793;28;20079;-76
2024/01/09 01:28:44;;;;;;;15.98;8.23;;;;;;;;;;4925067;29;20055;-75
2024/01/09 01:31:11;;;;;;;17.52;9.00;;;;;;;;;;4922729;29;20048;-75
2024/01/09 01:33:37;;;;;;;19.25;9.38;;;;;;;;;;4916918;29;20055;-75
2024/01/09 01:36:05;;;;;;;13.85;7.82;;;;;;;;;;4923196;29;20059;-75
2024/01/09 01:38:32;;;;;;;15.25;8.70;;;;;;;;;;4923848;29;20044;-74
2024/01/09 01:40:59;;;;;;;16.52;9.15;;;;;;;;;;4941728;29;20132;-75
2024/01/09 01:43:26;;;;;;;17.98;9.52;;;;;;;;;;4933845;29;20110;-75
2024/01/09 01:45:52;;;;;;;18.33;9.20;;;;;;;;;;4941750;29;20058;-75
2024/01/09 01:48:19;;;;;;;17.20;8.88;;;;;;;;;;4941516;29;20091;-75
2024/01/09 01:50:46;;;;;;;17.27;8.95;;;;;;;;;;4941424;29;20051;-75
2024/01/09 01:53:13;;;;;;;15.77;9.15;;;;;;;;;;4941576;29;20423;-75
2024/01/09 01:55:40;;;;;;;16.73;8.82;;;;;;;;;;4953972;28;20459;-75
2024/01/09 01:58:06;;;;;;;17.88;9.82;;;;;;;;;;4938362;29;20059;-75
2024/01/09 02:00:33;;;;;;;17.13;10.02;;;;;;;;;;4953895;29;20055;-75
2024/01/09 02:03:00;;;;;;;17.23;8.48;;;;;;;;;;4919478;29;20110;-75
2024/01/09 02:05:27;;;;;;;15.52;8.10;;;;;;;;;;4919935;29;20511;-75
2024/01/09 02:07:54;;;;;;;16.85;9.43;;;;;;;;;;4938087;29;20059;-75
2024/01/09 02:10:22;;;;;;;19.70;9.57;;;;;;;;;;4935043;29;20475;-75
2024/01/09 02:12:49;;;;;;;17.30;9.63;;;;;;;;;;4927063;29;20063;-74
2024/01/09 02:15:16;;;;;;;17.17;8.35;;;;;;;;;;4934093;29;20047;-75
2024/01/09 02:17:43;;;;;;;17.27;8.30;;;;;;;;;;4921745;29;21262;-74
2024/01/09 02:20:11;;;;;;;19.05;8.93;;;;;;;;;;4918980;29;20629;-75
2024/01/09 02:22:37;;;;;;;14.82;8.48;;;;;;;;;;4906812;29;20051;-75
2024/01/09 02:25:05;;;;;;;14.85;8.05;;;;;;;;;;4919023;29;20081;-75
2024/01/09 02:27:53;;;;;;;18.25;9.55;;;;;;;;;;4906833;29;20094;-75
2024/01/09 02:30:20;;;;;;;16.48;7.93;;;;;;;;;;4954763;28;20055;-75
2024/01/09 02:32:47;;;;;;;18.95;8.40;;;;;;;;;;4918809;29;20134;-75
2024/01/09 02:35:13;;;;;;;16.05;8.73;;;;;;;;;;4934649;29;20609;-75
2024/01/09 02:37:40;;;;;;;19.38;9.10;;;;;;;;;;4947162;29;20049;-75
2024/01/09 02:40:08;;;;;;;14.93;7.68;;;;;;;;;;4918239;29;20087;-75
2024/01/09 02:42:35;;;;;;;15.05;8.48;;;;;;;;;;4918630;29;20106;-74
2024/01/09 02:45:02;;;;;;;12.80;7.93;;;;;;;;;;4939731;29;20051;-76
2024/01/09 02:47:28;;;;;;;14.95;9.23;;;;;;;;;;4952953;29;20067;-76
2024/01/09 02:49:55;;;;;;;16.15;8.50;;;;;;;;;;4930020;29;20059;-75
2024/01/09 02:52:22;;;;;;;14.35;7.60;;;;;;;;;;4921981;29;20063;-76
2024/01/09 02:54:49;;;;;;;15.20;7.45;;;;;;;;;;4921627;29;20547;-74
2024/01/09 02:57:16;;;;;;;14.48;7.60;;;;;;;;;;4921841;29;20055;-76
2024/01/09 02:59:46;;;;;;;14.77;7.88;;;;;;;;;;4937465;29;20723;-76
2024/01/09 03:02:13;;;;;;;13.05;7.57;;;;;;;;;;4937811;29;20070;-76
2024/01/09 03:04:40;;;;;;;15.88;7.90;;;;;;;;;;4920263;29;20055;-75
2024/01/09 03:07:06;;;;;;;18.05;9.15;;;;;;;;;;4912837;29;20051;-75
2024/01/09 03:09:33;;;;;;;17.17;8.65;;;;;;;;;;4917347;29;20044;-75
2024/01/09 03:12:00;;;;;;;17.88;9.00;;;;;;;;;;4921398;29;20058;-75
2024/01/09 03:14:27;;;;;;;14.57;7.25;;;;;;;;;;4937015;29;20055;-75
2024/01/09 03:16:54;;;;;;;16.73;8.52;;;;;;;;;;4921534;29;20507;-75
2024/01/09 03:19:21;;;;;;;18.88;9.13;;;;;;;;;;4922804;29;20439;-77
2024/01/09 03:21:48;;;;;;;17.70;8.15;;;;;;;;;;4923258;29;20055;-75
2024/01/09 03:24:15;;;;;;;17.17;8.18;;;;;;;;;;4921690;29;20047;-76
2024/01/09 03:26:42;;;;;;;16.95;8.75;;;;;;;;;;4934601;29;20102;-76
2024/01/09 03:29:09;;;;;;;14.75;7.65;;;;;;;;;;4912894;29;20153;-76
2024/01/09 03:31:36;;;;;;;18.73;9.20;;;;;;;;;;4921485;29;20061;-76
2024/01/09 03:34:03;;;;;;;17.17;8.02;;;;;;;;;;4933634;29;20106;-76
2024/01/09 03:36:31;;;;;;;15.82;7.80;;;;;;;;;;4934546;29;20066;-76
2024/01/09 03:38:58;;;;;;;13.75;7.25;;;;;;;;;;4921648;29;20415;-75
2024/01/09 03:41:25;;;;;;;18.65;8.27;;;;;;;;;;4944721;29;20058;-75
2024/01/09 03:43:52;;;;;;;15.73;7.78;;;;;;;;;;4921354;29;20130;-74
2024/01/09 03:46:19;;;;;;;15.55;8.30;;;;;;;;;;4914631;29;20062;-75
2024/01/09 03:48:45;;;;;;;14.32;7.55;;;;;;;;;;4936303;29;20055;-75
2024/01/09 03:51:12;;;;;;;15.20;8.13;;;;;;;;;;4968270;28;20055;-76
2024/01/09 03:53:39;;;;;;;13.65;7.47;;;;;;;;;;4952482;29;20094;-76
2024/01/09 03:56:06;;;;;;;15.07;7.88;;;;;;;;;;4921032;29;20069;-75
2024/01/09 03:58:33;;;;;;;14.45;7.57;;;;;;;;;;4927435;29;20076;-75
2024/01/09 04:01:01;;;;;;;20.10;8.20;;;;;;;;;;4957149;29;20059;-75
2024/01/09 04:03:28;;;;;;;16.83;8.45;;;;;;;;;;4936105;29;20047;-74
2024/01/09 04:05:55;;;;;;;13.20;8.38;;;;;;;;;;4921720;29;20046;-76
2024/01/09 04:08:22;;;;;;;13.50;7.38;;;;;;;;;;4952089;29;20078;-76
2024/01/09 04:10:49;;;;;;;17.05;9.75;;;;;;;;;;4920598;29;20059;-75
2024/01/09 04:13:16;;;;;;;15.50;9.02;;;;;;;;;;4920938;29;20463;-75
2024/01/09 04:15:43;;;;;;;13.00;7.50;;;;;;;;;;4933494;29;20521;-75
2024/01/09 04:18:09;;;;;;;13.77;7.55;;;;;;;;;;4916592;29;20126;-75
2024/01/09 04:20:36;;;;;;;15.35;7.93;;;;;;;;;;4901203;29;20091;-74
2024/01/09 04:23:03;;;;;;;16.40;8.25;;;;;;;;;;4901462;29;20060;-75
2024/01/09 04:25:30;;;;;;;14.32;6.95;;;;;;;;;;4946004;29;20047;-74
2024/01/09 04:27:57;;;;;;;12.90;7.13;;;;;;;;;;4902787;29;20431;-74
2024/01/09 04:30:24;;;;;;;15.20;8.18;;;;;;;;;;4917184;29;20051;-75
2024/01/09 04:32:51;;;;;;;13.38;7.25;;;;;;;;;;4901884;29;20431;-75
2024/01/09 04:35:18;;;;;;;16.45;7.72;;;;;;;;;;4937952;29;20693;-75
2024/01/09 04:37:45;;;;;;;14.52;7.80;;;;;;;;;;4920455;29;20102;-75
2024/01/09 04:40:12;;;;;;;13.82;7.63;;;;;;;;;;4920043;29;20051;-76
2024/01/09 04:42:39;;;;;;;14.70;8.13;;;;;;;;;;4920248;29;20411;-75
2024/01/09 04:45:06;;;;;;;16.88;7.82;;;;;;;;;;4967367;28;20055;-75
2024/01/09 04:47:33;;;;;;;15.48;7.53;;;;;;;;;;4919966;29;20067;-75
2024/01/09 04:50:00;;;;;;;13.27;7.85;;;;;;;;;;4951230;29;20545;-75
2024/01/09 04:52:27;;;;;;;13.60;7.03;;;;;;;;;;4935659;29;20055;-74
2024/01/09 04:54:54;;;;;;;15.93;7.93;;;;;;;;;;4935757;29;20059;-74
2024/01/09 04:57:21;;;;;;;12.35;7.18;;;;;;;;;;4916843;29;20056;-77
2024/01/09 04:59:49;;;;;;;15.88;7.75;;;;;;;;;;4928246;29;20058;-75
2024/01/09 05:02:16;;;;;;;14.63;7.75;;;;;;;;;;4917143;29;20094;-76
2024/01/09 05:04:43;;;;;;;13.88;7.40;;;;;;;;;;4925232;29;20783;-74
2024/01/09 05:07:10;;;;;;;13.05;6.57;;;;;;;;;;4948805;29;20110;-75
2024/01/09 05:09:37;;;;;;;11.95;7.53;;;;;;;;;;4919422;29;20047;-75
2024/01/09 05:12:04;;;;;;;11.90;7.32;;;;;;;;;;4932668;29;20062;-74
2024/01/09 05:14:31;;;;;;;13.48;6.53;;;;;;;;;;4918495;29;20052;-75
2024/01/09 05:16:58;;;;;;;12.23;6.85;;;;;;;;;;4915855;29;20240;-76
2024/01/09 05:19:25;;;;;;;13.25;7.40;;;;;;;;;;4934473;29;20478;-75
2024/01/09 05:21:52;;;;;;;12.70;6.53;;;;;;;;;;4916465;29;20095;-76
2024/01/09 05:24:19;;;;;;;14.50;7.00;;;;;;;;;;4913902;29;20514;-75
2024/01/09 05:26:50;;;;;;;14.85;6.80;;;;;;;;;;4925802;29;20126;-75
2024/01/09 05:29:17;;;;;;;13.60;6.95;;;;;;;;;;4935426;29;20415;-76
2024/01/09 05:31:44;;;;;;;17.83;7.05;;;;;;;;;;4941736;29;20140;-73
2024/01/09 05:34:11;;;;;;;12.48;7.00;;;;;;;;;;4950330;29;20047;-75
2024/01/09 05:36:38;;;;;;;14.90;7.55;;;;;;;;;;4976871;29;20051;-75
2024/01/09 05:39:13;;;;;;;17.50;7.47;;;;;;;;;;4962615;29;20078;-74
2024/01/09 05:41:40;;;;;;;17.60;8.07;;;;;;;;;;4945530;29;20035;-76
2024/01/09 05:44:07;;;;;;;14.02;8.10;;;;;;;;;;4927145;29;20055;-78
2024/01/09 05:46:34;;;;;;;20.40;7.78;;;;;;;;;;4937211;29;20515;-76
2024/01/09 05:49:01;;;;;;;14.48;7.03;;;;;;;;;;4922047;29;20044;-78
2024/01/09 05:51:29;;;;;;;14.57;6.22;;;;;;;;;;4914089;29;20059;-76
2024/01/09 05:53:55;;;;;;;13.90;6.97;;;;;;;;;;4916644;29;20055;-76
2024/01/09 05:56:23;;;;;;;13.85;6.40;;;;;;;;;;4955653;29;20059;-75
2024/01/09 05:58:50;;;;;;;12.20;7.10;;;;;;;;;;4921727;29;20098;-76
2024/01/09 06:01:16;;;;;;;17.45;8.00;;;;;;;;;;4918946;29;20050;-76
2024/01/09 06:03:43;;;;;;;15.13;8.00;;;;;;;;;;4937881;29;20474;-76
2024/01/09 06:06:10;;;;;;;13.32;7.63;;;;;;;;;;4919559;29;20060;-75
2024/01/09 06:08:37;;;;;;;12.10;6.80;;;;;;;;;;4937602;29;20503;-76
2024/01/09 06:11:04;;;;;;;15.85;7.10;;;;;;;;;;4920134;29;20082;-75
2024/01/09 06:13:31;;;;;;;17.73;7.57;;;;;;;;;;4907364;29;20087;-76
2024/01/09 06:15:58;;;;;;;15.02;7.07;;;;;;;;;;4955858;28;20432;-76
2024/01/09 06:18:25;;;;;;;13.52;7.03;;;;;;;;;;4930223;29;20456;-76
2024/01/09 06:20:52;;;;;;;13.75;7.03;;;;;;;;;;4919205;29;20048;-76
2024/01/09 06:23:19;;;;;;;13.45;6.47;;;;;;;;;;4907366;29;20490;-76
2024/01/09 06:25:46;;;;;;;15.00;7.72;;;;;;;;;;4922063;29;20053;-75
2024/01/09 06:28:13;;;;;;;14.18;7.18;;;;;;;;;;4919622;29;20048;-76
2024/01/09 06:30:40;;;;;;;10.82;5.82;;;;;;;;;;4937405;29;20435;-76
2024/01/09 06:33:07;;;;;;;13.00;7.63;;;;;;;;;;4919766;29;20059;-76
2024/01/09 06:35:34;;;;;;;14.88;7.38;;;;;;;;;;4923131;29;20075;-76
2024/01/09 06:38:01;;;;;;;13.43;6.38;;;;;;;;;;4918803;29;20099;-75
2024/01/09 06:40:28;;;;;;;14.98;6.97;;;;;;;;;;4922292;28;20503;-76
2024/01/09 06:42:54;;;;;;;14.48;7.35;;;;;;;;;;4934581;29;20508;-77
2024/01/09 06:45:21;;;;;;;14.13;7.75;;;;;;;;;;4934861;29;20055;-76
2024/01/09 06:47:48;;;;;;;12.73;6.57;;;;;;;;;;4938204;29;20063;-77
2024/01/09 06:50:15;;;;;;;12.88;6.70;;;;;;;;;;4919565;29;20047;-76
2024/01/09 06:52:59;;;;;;;16.50;7.88;;;;;;;;;;4920777;29;20110;-76
2024/01/09 06:55:25;;;;;;;14.18;7.05;;;;;;;;;;4919387;29;20047;-76
2024/01/09 06:57:52;;;;;;;16.17;7.35;;;;;;;;;;4933864;29;20106;-76
2024/01/09 07:00:19;;;;;;;17.25;7.82;;;;;;;;;;4930962;29;20472;-74
2024/01/09 07:02:46;;;;;;;14.32;6.78;;;;;;;;;;4953502;29;20051;-80
2024/01/09 07:05:13;;;;;;;14.00;6.47;;;;;;;;;;4918539;29;20052;-75
2024/01/09 07:07:41;;;;;;;15.75;7.07;;;;;;;;;;4910688;29;20047;-76
2024/01/09 07:10:16;;;;;;;16.00;8.00;;;;;;;;;;4937031;29;20055;-74
2024/01/09 07:12:43;;;;;;;13.52;8.23;;;;;;;;;;4935990;29;20061;-74
2024/01/09 07:15:13;;;;;;;13.10;7.35;;;;;;;;;;4936144;29;20574;-76
2024/01/09 07:17:41;;;;;;;14.32;6.82;;;;;;;;;;4936273;29;20094;-76
2024/01/09 07:20:09;;;;;;;14.68;7.90;;;;;;;;;;4916770;29;20428;-75
2024/01/09 07:22:37;;;;;;;16.05;9.20;;;;;;;;;;4918658;29;20507;-75
2024/01/09 07:25:04;;;;;;;13.13;6.55;;;;;;;;;;4920154;29;20585;-75
2024/01/09 07:27:31;;;;;;;15.07;8.00;;;;;;;;;;4935580;29;20439;-75
2024/01/09 07:29:57;;;;;;;14.45;7.22;;;;;;;;;;4919525;29;20058;-74
2024/01/09 07:32:25;;;;;;;16.02;7.28;;;;;;;;;;4927493;29;20055;-74
2024/01/09 07:34:52;;;;;;;17.70;7.82;;;;;;;;;;4916964;29;20052;-76
2024/01/09 07:37:22;;;;;;;14.77;7.28;;;;;;;;;;4932424;29;20061;-75
2024/01/09 07:39:49;;;;;;;16.65;8.15;;;;;;;;;;4912293;29;20058;-75
2024/01/09 07:42:17;;;;;;;17.13;8.40;;;;;;;;;;4951394;29;20134;-75
2024/01/09 07:44:43;;;;;;;14.27;7.15;;;;;;;;;;4932077;28;20237;-73
2024/01/09 07:47:13;;;;;;;18.60;7.60;;;;;;;;;;4961262;28;20032;-75
2024/01/09 07:49:40;;;;;;;13.45;7.43;;;;;;;;;;4945950;29;20052;-73
2024/01/09 07:52:09;;;;;;;15.88;8.15;;;;;;;;;;4930019;29;20040;-77
2024/01/09 07:54:35;;;;;;;15.38;7.40;;;;;;;;;;4912215;29;20051;-77
2024/01/09 07:57:02;;;;;;;18.00;7.82;;;;;;;;;;4920853;29;20051;-76
2024/01/09 07:59:31;;;;;;;15.60;7.63;;;;;;;;;;4935138;29;20064;-78
2024/01/09 08:02:00;;;;;;;15.20;7.55;;;;;;;;;;4995120;23;20022;-75
2024/01/09 08:04:27;;;;;;;18.23;8.05;;;;;;;;;;5030562;23;20499;-80
2024/01/09 08:06:55;;;;;;;14.57;7.47;;;;;;;;;;4923109;28;20062;-78
2024/01/09 08:09:22;;;;;;;16.90;7.82;;;;;;;;;;4924298;29;20066;-81
2024/01/09 08:11:49;;;;;;;17.15;8.07;;;;;;;;;;4920535;29;20097;-76
2024/01/09 08:14:15;;;;;;;15.90;7.80;;;;;;;;;;4940371;28;20074;-80
2024/01/09 08:16:42;;;;;;;14.65;7.85;;;;;;;;;;4953245;29;20430;-78
2024/01/09 08:19:10;;;;;;;14.25;6.45;;;;;;;;;;4912768;29;20067;-80
2024/01/09 08:21:37;;;;;;;19.30;7.35;;;;;;;;;;4922248;29;20058;-80
2024/01/09 08:24:08;;;;;;;16.77;7.30;;;;;;;;;;4924298;29;20051;-81
2024/01/09 08:26:35;;;;;;;14.77;6.90;;;;;;;;;;4933767;29;20051;-79
2024/01/09 08:29:03;;;;;;;14.88;7.43;;;;;;;;;;4919027;29;20066;-79
2024/01/09 08:31:30;;;;;;;15.45;6.93;;;;;;;;;;4938098;29;20396;-81
2024/01/09 08:33:57;;;;;;;15.98;8.13;;;;;;;;;;4921470;29;20097;-78
2024/01/09 08:36:24;;;;;;;15.63;7.80;;;;;;;;;;4923333;29;20050;-78
2024/01/09 08:38:52;;;;;;;16.83;8.35;;;;;;;;;;4941012;29;20110;-80
2024/01/09 08:41:20;;;;;;;13.45;8.30;;;;;;;;;;4931352;29;20451;-79
2024/01/09 08:43:48;;;;;;;13.50;6.80;;;;;;;;;;4935323;29;20051;-80
2024/01/09 08:46:15;;;;;;;18.02;8.45;;;;;;;;;;4936650;29;20162;-79
2024/01/09 08:48:42;;;;;;;17.38;7.30;;;;;;;;;;4934117;29;20048;-80
2024/01/09 08:51:10;;;;;;;17.80;7.57;;;;;;;;;;4933145;29;20085;-78
2024/01/09 08:53:43;;;;;;;18.92;7.82;;;;;;;;;;4950921;29;20051;-78
2024/01/09 08:56:10;;;;;;;12.70;7.15;;;;;;;;;;4935911;29;20078;-79
2024/01/09 08:58:37;;;;;;;16.88;7.72;;;;;;;;;;4948155;29;20051;-77
2024/01/09 09:01:04;;;;;;;15.43;7.00;;;;;;;;;;4948241;29;20110;-80
2024/01/09 09:03:31;;;;;;;12.52;6.63;;;;;;;;;;4929315;29;20048;-80
2024/01/09 09:05:58;;;;;;;14.57;8.20;;;;;;;;;;4933428;29;20094;-80
2024/01/09 09:08:25;;;;;;;18.23;7.83;;;;;;;;;;4957188;29;20051;-82
2024/01/09 09:10:52;;;;;;;17.05;8.30;;;;;;;;;;4916198;29;20098;-80
2024/01/09 09:13:19;;;;;;;15.52;7.13;;;;;;;;;;4935213;29;20432;-80
2024/01/09 09:15:46;;;;;;;16.13;8.32;;;;;;;;;;4927073;29;20058;-80
2024/01/09 09:18:13;;;;;;;14.32;7.60;;;;;;;;;;4939130;29;20098;-81
2024/01/09 09:20:40;;;;;;;15.07;7.55;;;;;;;;;;4941409;29;20407;-80
2024/01/09 09:23:08;;;;;;;16.58;8.00;;;;;;;;;;4923049;29;20416;-81
2024/01/09 09:25:35;;;;;;;17.48;8.05;;;;;;;;;;4940605;29;20066;-80
2024/01/09 09:28:02;;;;;;;13.45;7.30;;;;;;;;;;4939286;29;20501;-79
2024/01/09 09:30:29;;;;;;;18.30;7.60;;;;;;;;;;4939044;28;20467;-81
2024/01/09 09:32:58;;;;;;;19.80;8.00;;;;;;;;;;4922929;29;20481;-80
2024/01/09 09:35:25;;;;;;;14.18;7.57;;;;;;;;;;4940137;28;20047;-80
2024/01/09 09:37:53;;;;;;;17.00;7.53;;;;;;;;;;4928174;29;20055;-81
2024/01/09 09:40:20;;;;;;;18.00;7.82;;;;;;;;;;4943795;29;20055;-81
2024/01/09 09:42:51;;;;;;;15.32;7.15;;;;;;;;;;4943394;28;20423;-81
2024/01/09 09:45:18;;;;;;;14.82;8.25;;;;;;;;;;4921309;29;20066;-80
2024/01/09 09:47:46;;;;;;;14.07;7.32;;;;;;;;;;4957927;29;20055;-81
2024/01/09 09:50:13;;;;;;;15.27;7.38;;;;;;;;;;4925838;29;20059;-80
2024/01/09 09:52:41;;;;;;;16.15;7.90;;;;;;;;;;4943169;28;20503;-80
2024/01/09 09:55:09;;;;;;;18.15;6.40;;;;;;;;;;4926482;29;20082;-80
2024/01/09 09:57:36;;;;;;;16.17;7.75;;;;;;;;;;4939475;29;20507;-81
2024/01/09 10:00:04;;;;;;;14.10;7.45;;;;;;;;;;4926781;29;20059;-80
2024/01/09 10:02:31;;;;;;;16.15;7.25;;;;;;;;;;4942200;29;20114;-81
2024/01/09 10:05:03;;;;;;;15.50;8.00;;;;;;;;;;4927386;29;20053;-81
2024/01/09 10:07:30;;;;;;;14.88;7.78;;;;;;;;;;4940974;29;20059;-81
2024/01/09 10:09:56;;;;;;;15.48;7.25;;;;;;;;;;4959246;29;20111;-80
2024/01/09 10:12:24;;;;;;;16.65;7.88;;;;;;;;;;4927917;29;20059;-81
2024/01/09 10:15:05;;;;;;;14.93;7.65;;;;;;;;;;4944450;28;20511;-81
2024/01/09 10:17:32;;;;;;;16.80;7.80;;;;;;;;;;4959205;28;20074;-81
2024/01/09 10:20:01;;;;;;;15.55;7.85;;;;;;;;;;4926329;29;20058;-81
2024/01/09 10:22:31;;;;;;;18.50;7.82;;;;;;;;;;4959535;29;20062;-81
2024/01/09 10:24:58;;;;;;;16.30;7.15;;;;;;;;;;4939941;29;20027;-79
2024/01/09 10:27:26;;;;;;;14.80;6.97;;;;;;;;;;4945823;28;20051;-80
2024/01/09 10:29:52;;;;;;;16.15;8.45;;;;;;;;;;4940442;29;20051;-80
2024/01/09 10:32:19;;;;;;;14.82;7.43;;;;;;;;;;4925628;29;20055;-80
2024/01/09 10:34:46;;;;;;;16.05;7.53;;;;;;;;;;4927040;29;20143;-82
2024/01/09 10:37:14;;;;;;;14.88;7.50;;;;;;;;;;4927264;29;20051;-81
2024/01/09 10:39:42;;;;;;;13.80;8.13;;;;;;;;;;4943866;29;20044;-80
2024/01/09 10:42:09;;;;;;;15.80;7.50;;;;;;;;;;4930050;29;20531;-81
2024/01/09 10:44:39;;;;;;;17.60;7.65;;;;;;;;;;4943676;29;20055;-82
2024/01/09 10:47:10;;;;;;;13.65;7.43;;;;;;;;;;4928222;29;20075;-82
2024/01/09 10:49:39;;;;;;;12.90;7.05;;;;;;;;;;4944167;28;20051;-82
2024/01/09 10:52:14;;;;;;;14.35;7.28;;;;;;;;;;4929750;29;20082;-81
2024/01/09 10:54:42;;;;;;;17.05;7.78;;;;;;;;;;4946414;29;20055;-81
2024/01/09 10:57:16;;;;;;;16.20;7.32;;;;;;;;;;4928775;29;20051;-81
2024/01/09 10:59:44;;;;;;;13.25;6.88;;;;;;;;;;4929617;29;20044;-81
2024/01/09 11:02:21;;;;;;;12.55;7.78;;;;;;;;;;4928864;29;20055;-80
2024/01/09 11:04:49;;;;;;;14.40;7.10;;;;;;;;;;4960606;28;20426;-82
2024/01/09 11:07:16;;;;;;;13.13;7.13;;;;;;;;;;4944213;29;20062;-81
2024/01/09 11:09:47;;;;;;;15.05;7.50;;;;;;;;;;4927541;29;20054;-82
2024/01/09 11:12:47;;;;;;;14.55;7.65;;;;;;;;;;4922243;29;20059;-82
2024/01/09 11:15:20;;;;;;;15.10;7.15;;;;;;;;;;4894839;29;20126;-81
2024/01/09 11:18:04;;;;;;;14.05;7.35;;;;;;;;;;4942668;29;20538;-81
2024/01/09 11:20:32;;;;;;;13.60;7.57;;;;;;;;;;4943498;29;20047;-79
2024/01/09 11:22:59;;;;;;;13.68;6.88;;;;;;;;;;4935449;28;20043;-80
2024/01/09 11:25:31;;;;;;;13.18;7.03;;;;;;;;;;4928354;29;20032;-80
2024/01/09 11:28:01;;;;;;;16.15;7.53;;;;;;;;;;4933952;29;20057;-81
2024/01/09 11:30:30;;;;;;;13.82;7.68;;;;;;;;;;4943280;29;20051;-80
2024/01/09 11:33:34;;;;;;;16.50;8.23;;;;;;;;;;4942809;29;20039;-82
2024/01/09 11:36:05;;;;;;;14.13;6.90;;;;;;;;;;4958262;28;20062;-80
2024/01/09 11:38:32;;;;;;;14.02;7.20;;;;;;;;;;4957599;28;20047;-80
2024/01/09 11:41:06;;;;;;;12.88;7.35;;;;;;;;;;4938749;29;20083;-81
2024/01/09 11:44:01;;;;;;;17.17;8.95;;;;;;;;;;4950543;29;20660;-82
2024/01/09 11:46:31;;;;;;;15.80;6.90;;;;;;;;;;4970371;28;20043;-82
2024/01/09 11:48:59;;;;;;;13.93;6.85;;;;;;;;;;4942499;29;20043;-82
2024/01/09 11:51:26;;;;;;;11.45;6.40;;;;;;;;;;4960129;28;20061;-80
2024/01/09 11:53:53;;;;;;;14.88;7.63;;;;;;;;;;4944591;29;20035;-81
2024/01/09 11:56:21;;;;;;;11.13;5.80;;;;;;;;;;4944121;29;20039;-81
2024/01/09 11:58:50;;;;;;;15.52;7.72;;;;;;;;;;4941343;29;20047;-81
2024/01/09 12:01:20;;;;;;;10.40;6.35;;;;;;;;;;4940330;29;20044;-82
2024/01/09 12:03:52;;;;;;;10.25;6.15;;;;;;;;;;4935864;29;20134;-82
2024/01/09 12:06:20;;;;;;;15.45;7.18;;;;;;;;;;4935833;29;20075;-82
2024/01/09 12:08:47;;;;;;;13.30;6.22;;;;;;;;;;4919806;29;20047;-83
2024/01/09 12:11:15;;;;;;;16.17;7.28;;;;;;;;;;4917999;29;20507;-83
2024/01/09 12:13:42;;;;;;;13.95;6.97;;;;;;;;;;4928668;29;20070;-84
2024/01/09 12:16:21;;;;;;;12.30;6.25;;;;;;;;;;4920849;29;20058;-81
2024/01/09 12:18:51;;;;;;;11.30;6.07;;;;;;;;;;4951695;28;20062;-81
2024/01/09 12:21:19;;;;;;;13.55;6.97;;;;;;;;;;4920990;29;20065;-82
2024/01/09 12:23:46;;;;;;;10.52;5.90;;;;;;;;;;4919452;29;20085;-81
2024/01/09 12:26:32;;;;;;;14.90;6.68;;;;;;;;;;4934490;29;20051;-79
2024/01/09 12:28:59;;;;;;;14.55;6.63;;;;;;;;;;4948543;28;20054;-81
2024/01/09 12:31:26;;;;;;;11.63;6.53;;;;;;;;;;4917722;29;20680;-80
2024/01/09 12:33:54;;;;;;;10.30;6.03;;;;;;;;;;4912957;29;20062;-82
2024/01/09 12:36:23;;;;;;;11.25;6.03;;;;;;;;;;4929544;29;20476;-83
2024/01/09 12:38:51;;;;;;;11.32;6.07;;;;;;;;;;4927424;28;20043;-83
2024/01/09 12:41:24;;;;;;;12.00;6.18;;;;;;;;;;4920262;29;20071;-83
2024/01/09 12:43:51;;;;;;;11.60;6.15;;;;;;;;;;4921318;29;20078;-83
2024/01/09 12:46:20;;;;;;;12.80;6.55;;;;;;;;;;4919698;29;20102;-82
2024/01/09 12:48:49;;;;;;;12.50;6.70;;;;;;;;;;4922317;29;20051;-82
2024/01/09 12:51:18;;;;;;;13.88;6.32;;;;;;;;;;4928734;29;20043;-82
2024/01/09 12:53:46;;;;;;;10.98;5.05;;;;;;;;;;4930756;29;20059;-83
2024/01/09 12:56:16;;;;;;;12.23;6.72;;;;;;;;;;4922592;29;20135;-83
2024/01/09 12:58:45;;;;;;;10.30;6.40;;;;;;;;;;4952871;29;20053;-82
2024/01/09 13:01:16;;;;;;;11.70;6.30;;;;;;;;;;4920586;29;20496;-83
2024/01/09 13:03:45;;;;;;;11.57;6.30;;;;;;;;;;4952967;29;20054;-82
2024/01/09 13:06:13;;;;;;;10.40;6.18;;;;;;;;;;4929957;28;20121;-83
2024/01/09 13:08:40;;;;;;;10.73;5.95;;;;;;;;;;4919335;29;20047;-83
2024/01/09 13:11:09;;;;;;;14.77;6.57;;;;;;;;;;4919734;29;20052;-84
2024/01/09 13:13:37;;;;;;;10.80;6.05;;;;;;;;;;4920601;29;20043;-83
2024/01/09 13:16:08;;;;;;;10.32;5.60;;;;;;;;;;4922370;29;20082;-83
2024/01/09 13:18:36;;;;;;;11.48;6.80;;;;;;;;;;4929132;28;20043;-82
2024/01/09 13:21:03;;;;;;;12.30;6.25;;;;;;;;;;4921740;29;20118;-83
2024/01/09 13:23:31;;;;;;;11.18;6.53;;;;;;;;;;4925391;29;20048;-83
2024/01/09 13:26:02;;;;;;;14.75;6.88;;;;;;;;;;4934843;28;20134;-82
2024/01/09 13:28:29;;;;;;;9.90;5.93;;;;;;;;;;4924510;29;20059;-82
2024/01/09 13:30:57;;;;;;;11.50;6.00;;;;;;;;;;4940320;29;20058;-82
2024/01/09 13:33:25;;;;;;;11.68;5.63;;;;;;;;;;4931084;29;20065;-82
2024/01/09 13:35:53;;;;;;;10.95;5.93;;;;;;;;;;4922045;29;20055;-83
2024/01/09 13:38:20;;;;;;;15.60;7.15;;;;;;;;;;4922656;29;20106;-82
2024/01/09 13:40:48;;;;;;;15.38;6.47;;;;;;;;;;4922396;29;20047;-82
2024/01/09 13:43:15;;;;;;;11.88;7.05;;;;;;;;;;4923454;29;20134;-79
2024/01/09 13:45:43;;;;;;;12.40;5.68;;;;;;;;;;4927720;28;20492;-82
2024/01/09 13:48:10;;;;;;;10.65;6.10;;;;;;;;;;4920365;29;20426;-81
2024/01/09 13:50:38;;;;;;;11.40;5.97;;;;;;;;;;4925591;29;20055;-81
2024/01/09 13:53:08;;;;;;;13.23;5.68;;;;;;;;;;4935041;29;20051;-81
2024/01/09 13:55:35;;;;;;;12.82;6.53;;;;;;;;;;4921257;29;20052;-82
2024/01/09 13:58:03;;;;;;;11.65;5.47;;;;;;;;;;4927090;28;20059;-82
2024/01/09 14:00:30;;;;;;;11.35;5.93;;;;;;;;;;4923570;29;20130;-81
2024/01/09 14:02:58;;;;;;;12.57;6.60;;;;;;;;;;4923940;29;20114;-81
2024/01/09 14:05:28;;;;;;;11.57;5.60;;;;;;;;;;4931563;28;20055;-81
2024/01/09 14:07:55;;;;;;;10.88;6.07;;;;;;;;;;4923585;29;20055;-82
2024/01/09 14:10:22;;;;;;;9.32;5.40;;;;;;;;;;4922982;29;20062;-82
2024/01/09 14:12:50;;;;;;;8.98;6.18;;;;;;;;;;4927853;29;20055;-81
2024/01/09 14:15:18;;;;;;;14.00;6.00;;;;;;;;;;4935423;29;20061;-81
2024/01/09 14:17:45;;;;;;;11.60;5.50;;;;;;;;;;4922226;29;20061;-81
2024/01/09 14:20:12;;;;;;;10.02;5.35;;;;;;;;;;4921779;29;20087;-80
2024/01/09 14:22:39;;;;;;;10.95;5.88;;;;;;;;;;4922291;29;20078;-81
2024/01/09 14:25:07;;;;;;;13.98;6.03;;;;;;;;;;4923172;29;20110;-81
2024/01/09 14:27:35;;;;;;;9.55;5.65;;;;;;;;;;4928099;29;20508;-82
2024/01/09 14:30:02;;;;;;;14.52;6.75;;;;;;;;;;4922217;29;20110;-81
2024/01/09 14:32:30;;;;;;;11.70;5.55;;;;;;;;;;4921654;29;20055;-80
2024/01/09 14:34:57;;;;;;;12.07;5.35;;;;;;;;;;4921650;29;20063;-82